sensor_id;sensor_type;location;lat;lon;timestamp;P1;durP1;ratioP1;P2;durP2;ratioP2
31298;SDS011;17927;52.350;13.402;2023-03-13T00:01:18;14.88;;;4.93;;
31298;SDS011;17927;52.350;13.402;2023-03-13T00:03:44;10.02;;;5.70;;
31298;SDS011;17927;52.350;13.402;2023-03-13T00:06:09;13.32;;;5.93;;
31298;SDS011;17927;52.350;13.402;2023-03-13T00:08:35;10.45;;;5.18;;
31298;SDS011;17927;52.350;13.402;2023-03-13T00:11:04;11.57;;;5.72;;
31298;SDS011;17927;52.350;13.402;2023-03-13T00:13:31;13.15;;;5.63;;
31298;SDS011;17927;52.350;13.402;2023-03-13T00:16:00;13.52;;;5.65;;
31298;SDS011;17927;52.350;13.402;2023-03-13T00:18:25;12.10;;;5.80;;
31298;SDS011;17927;52.350;13.402;2023-03-13T00:20:56;13.50;;;5.88;;
31298;SDS011;17927;52.350;13.402;2023-03-13T00:23:23;11.98;;;6.10;;
31298;SDS011;17927;52.350;13.402;2023-03-13T00:25:54;20.33;;;6.47;;
31298;SDS011;17927;52.350;13.402;2023-03-13T00:28:21;12.77;;;6.30;;
31298;SDS011;17927;52.350;13.402;2023-03-13T00:30:46;15.52;;;6.32;;
31298;SDS011;17927;52.350;13.402;2023-03-13T00:33:11;14.50;;;6.15;;
31298;SDS011;17927;52.350;13.402;2023-03-13T00:35:37;13.60;;;6.20;;
31298;SDS011;17927;52.350;13.402;2023-03-13T00:38:02;13.35;;;5.25;;
31298;SDS011;17927;52.350;13.402;2023-03-13T00:40:27;10.52;;;6.07;;
31298;SDS011;17927;52.350;13.402;2023-03-13T00:42:52;10.07;;;5.40;;
31298;SDS011;17927;52.350;13.402;2023-03-13T00:45:18;17.65;;;6.03;;
31298;SDS011;17927;52.350;13.402;2023-03-13T00:47:43;18.33;;;7.65;;
31298;SDS011;17927;52.350;13.402;2023-03-13T00:50:08;13.93;;;6.30;;
31298;SDS011;17927;52.350;13.402;2023-03-13T00:52:34;11.75;;;5.72;;
31298;SDS011;17927;52.350;13.402;2023-03-13T00:54:59;15.75;;;6.47;;
31298;SDS011;17927;52.350;13.402;2023-03-13T00:57:24;10.38;;;6.38;;
31298;SDS011;17927;52.350;13.402;2023-03-13T00:59:49;14.00;;;6.57;;
31298;SDS011;17927;52.350;13.402;2023-03-13T01:02:15;12.20;;;6.72;;
31298;SDS011;17927;52.350;13.402;2023-03-13T01:04:40;11.65;;;6.65;;
31298;SDS011;17927;52.350;13.402;2023-03-13T01:07:05;13.50;;;7.47;;
31298;SDS011;17927;52.350;13.402;2023-03-13T01:09:30;11.13;;;6.55;;
31298;SDS011;17927;52.350;13.402;2023-03-13T01:11:56;14.55;;;7.45;;
31298;SDS011;17927;52.350;13.402;2023-03-13T01:14:21;11.82;;;8.27;;
31298;SDS011;17927;52.350;13.402;2023-03-13T01:16:46;8.55;;;6.35;;
31298;SDS011;17927;52.350;13.402;2023-03-13T01:19:12;16.83;;;7.70;;
31298;SDS011;17927;52.350;13.402;2023-03-13T01:21:40;13.10;;;7.93;;
31298;SDS011;17927;52.350;13.402;2023-03-13T01:24:07;9.00;;;7.55;;
31298;SDS011;17927;52.350;13.402;2023-03-13T01:26:33;8.15;;;6.60;;
31298;SDS011;17927;52.350;13.402;2023-03-13T01:28:58;11.23;;;6.85;;
31298;SDS011;17927;52.350;13.402;2023-03-13T01:31:27;9.20;;;6.50;;
31298;SDS011;17927;52.350;13.402;2023-03-13T01:33:55;17.55;;;6.93;;
31298;SDS011;17927;52.350;13.402;2023-03-13T01:36:22;9.65;;;6.00;;
31298;SDS011;17927;52.350;13.402;2023-03-13T01:38:49;13.82;;;6.75;;
31298;SDS011;17927;52.350;13.402;2023-03-13T01:41:15;7.85;;;6.13;;
31298;SDS011;17927;52.350;13.402;2023-03-13T01:43:42;9.25;;;6.20;;
31298;SDS011;17927;52.350;13.402;2023-03-13T01:46:19;9.40;;;5.60;;
31298;SDS011;17927;52.350;13.402;2023-03-13T01:48:49;8.98;;;5.97;;
31298;SDS011;17927;52.350;13.402;2023-03-13T01:51:18;5.75;;;5.18;;
31298;SDS011;17927;52.350;13.402;2023-03-13T01:53:48;9.77;;;5.43;;
31298;SDS011;17927;52.350;13.402;2023-03-13T01:56:23;7.47;;;5.50;;
31298;SDS011;17927;52.350;13.402;2023-03-13T01:58:54;9.40;;;5.93;;
31298;SDS011;17927;52.350;13.402;2023-03-13T02:01:21;10.63;;;5.38;;
31298;SDS011;17927;52.350;13.402;2023-03-13T02:03:48;11.32;;;5.22;;
31298;SDS011;17927;52.350;13.402;2023-03-13T02:06:14;12.55;;;5.22;;
31298;SDS011;17927;52.350;13.402;2023-03-13T02:08:42;11.25;;;4.80;;
31298;SDS011;17927;52.350;13.402;2023-03-13T02:11:24;8.45;;;4.80;;
31298;SDS011;17927;52.350;13.402;2023-03-13T02:13:56;8.35;;;4.68;;
31298;SDS011;17927;52.350;13.402;2023-03-13T02:16:23;13.05;;;5.55;;
31298;SDS011;17927;52.350;13.402;2023-03-13T02:18:48;17.80;;;5.10;;
31298;SDS011;17927;52.350;13.402;2023-03-13T02:21:38;11.02;;;4.97;;
31298;SDS011;17927;52.350;13.402;2023-03-13T02:24:11;7.47;;;5.03;;
31298;SDS011;17927;52.350;13.402;2023-03-13T02:26:47;13.27;;;5.07;;
31298;SDS011;17927;52.350;13.402;2023-03-13T02:29:12;12.50;;;4.30;;
31298;SDS011;17927;52.350;13.402;2023-03-13T02:31:42;12.73;;;4.28;;
31298;SDS011;17927;52.350;13.402;2023-03-13T02:34:09;10.88;;;4.82;;
31298;SDS011;17927;52.350;13.402;2023-03-13T02:36:36;16.75;;;4.40;;
31298;SDS011;17927;52.350;13.402;2023-03-13T02:39:02;9.60;;;3.90;;
31298;SDS011;17927;52.350;13.402;2023-03-13T02:41:30;8.38;;;3.70;;
31298;SDS011;17927;52.350;13.402;2023-03-13T02:43:57;7.70;;;3.72;;
31298;SDS011;17927;52.350;13.402;2023-03-13T02:46:22;9.15;;;4.00;;
31298;SDS011;17927;52.350;13.402;2023-03-13T02:48:49;9.52;;;3.95;;
31298;SDS011;17927;52.350;13.402;2023-03-13T02:51:30;7.43;;;3.58;;
31298;SDS011;17927;52.350;13.402;2023-03-13T02:54:04;10.50;;;3.75;;
31298;SDS011;17927;52.350;13.402;2023-03-13T02:56:35;9.75;;;3.63;;
31298;SDS011;17927;52.350;13.402;2023-03-13T02:59:02;9.20;;;2.97;;
31298;SDS011;17927;52.350;13.402;2023-03-13T03:01:27;9.02;;;3.70;;
31298;SDS011;17927;52.350;13.402;2023-03-13T03:03:53;11.73;;;3.15;;
31298;SDS011;17927;52.350;13.402;2023-03-13T03:06:18;8.90;;;3.33;;
31298;SDS011;17927;52.350;13.402;2023-03-13T03:08:43;6.82;;;3.15;;
31298;SDS011;17927;52.350;13.402;2023-03-13T03:11:09;7.75;;;2.67;;
31298;SDS011;17927;52.350;13.402;2023-03-13T03:13:34;10.88;;;3.10;;
31298;SDS011;17927;52.350;13.402;2023-03-13T03:16:04;11.82;;;3.60;;
31298;SDS011;17927;52.350;13.402;2023-03-13T03:18:31;10.85;;;3.42;;
31298;SDS011;17927;52.350;13.402;2023-03-13T03:20:56;11.65;;;3.13;;
31298;SDS011;17927;52.350;13.402;2023-03-13T03:23:21;8.90;;;2.88;;
31298;SDS011;17927;52.350;13.402;2023-03-13T03:25:46;14.15;;;3.55;;
31298;SDS011;17927;52.350;13.402;2023-03-13T03:28:12;10.02;;;4.00;;
31298;SDS011;17927;52.350;13.402;2023-03-13T03:30:37;16.15;;;3.50;;
31298;SDS011;17927;52.350;13.402;2023-03-13T03:33:02;15.48;;;3.28;;
31298;SDS011;17927;52.350;13.402;2023-03-13T03:35:28;12.55;;;3.70;;
31298;SDS011;17927;52.350;13.402;2023-03-13T03:37:53;13.55;;;4.07;;
31298;SDS011;17927;52.350;13.402;2023-03-13T03:40:18;19.20;;;4.38;;
31298;SDS011;17927;52.350;13.402;2023-03-13T03:42:45;9.63;;;3.03;;
31298;SDS011;17927;52.350;13.402;2023-03-13T03:45:10;10.82;;;3.13;;
31298;SDS011;17927;52.350;13.402;2023-03-13T03:47:35;12.05;;;3.45;;
31298;SDS011;17927;52.350;13.402;2023-03-13T03:50:01;9.75;;;2.92;;
31298;SDS011;17927;52.350;13.402;2023-03-13T03:52:27;14.48;;;3.47;;
31298;SDS011;17927;52.350;13.402;2023-03-13T03:54:53;15.48;;;3.42;;
31298;SDS011;17927;52.350;13.402;2023-03-13T03:57:18;16.90;;;3.75;;
31298;SDS011;17927;52.350;13.402;2023-03-13T03:59:43;13.40;;;3.22;;
31298;SDS011;17927;52.350;13.402;2023-03-13T04:02:08;19.20;;;4.25;;
31298;SDS011;17927;52.350;13.402;2023-03-13T04:04:34;11.05;;;3.15;;
31298;SDS011;17927;52.350;13.402;2023-03-13T04:06:59;12.23;;;3.17;;
31298;SDS011;17927;52.350;13.402;2023-03-13T04:09:24;16.20;;;3.28;;
31298;SDS011;17927;52.350;13.402;2023-03-13T04:11:49;9.70;;;3.25;;
31298;SDS011;17927;52.350;13.402;2023-03-13T04:14:15;13.07;;;3.60;;
31298;SDS011;17927;52.350;13.402;2023-03-13T04:16:40;22.35;;;4.18;;
31298;SDS011;17927;52.350;13.402;2023-03-13T04:19:05;12.45;;;3.58;;
31298;SDS011;17927;52.350;13.402;2023-03-13T04:21:31;13.55;;;3.30;;
31298;SDS011;17927;52.350;13.402;2023-03-13T04:23:56;17.10;;;4.43;;
31298;SDS011;17927;52.350;13.402;2023-03-13T04:26:22;16.98;;;3.50;;
31298;SDS011;17927;52.350;13.402;2023-03-13T04:28:47;21.98;;;8.07;;
31298;SDS011;17927;52.350;13.402;2023-03-13T04:31:12;16.60;;;4.47;;
31298;SDS011;17927;52.350;13.402;2023-03-13T04:33:37;10.57;;;3.58;;
31298;SDS011;17927;52.350;13.402;2023-03-13T04:36:03;15.85;;;4.05;;
31298;SDS011;17927;52.350;13.402;2023-03-13T04:38:28;20.85;;;4.22;;
31298;SDS011;17927;52.350;13.402;2023-03-13T04:40:53;15.50;;;3.15;;
31298;SDS011;17927;52.350;13.402;2023-03-13T04:43:19;9.80;;;2.72;;
31298;SDS011;17927;52.350;13.402;2023-03-13T04:45:44;11.40;;;3.20;;
31298;SDS011;17927;52.350;13.402;2023-03-13T04:48:10;14.45;;;4.50;;
31298;SDS011;17927;52.350;13.402;2023-03-13T04:50:35;14.45;;;3.65;;
31298;SDS011;17927;52.350;13.402;2023-03-13T04:53:01;20.00;;;3.97;;
31298;SDS011;17927;52.350;13.402;2023-03-13T04:55:26;19.52;;;3.47;;
31298;SDS011;17927;52.350;13.402;2023-03-13T04:57:51;15.13;;;3.38;;
31298;SDS011;17927;52.350;13.402;2023-03-13T05:00:16;14.45;;;3.25;;
31298;SDS011;17927;52.350;13.402;2023-03-13T05:02:42;15.68;;;3.17;;
31298;SDS011;17927;52.350;13.402;2023-03-13T05:05:07;12.57;;;3.50;;
31298;SDS011;17927;52.350;13.402;2023-03-13T05:07:33;19.42;;;3.20;;
31298;SDS011;17927;52.350;13.402;2023-03-13T05:09:58;18.05;;;3.22;;
31298;SDS011;17927;52.350;13.402;2023-03-13T05:12:24;18.13;;;4.25;;
31298;SDS011;17927;52.350;13.402;2023-03-13T05:14:49;15.40;;;3.15;;
31298;SDS011;17927;52.350;13.402;2023-03-13T05:17:14;21.33;;;3.75;;
31298;SDS011;17927;52.350;13.402;2023-03-13T05:19:41;13.00;;;3.20;;
31298;SDS011;17927;52.350;13.402;2023-03-13T05:22:07;18.17;;;3.92;;
31298;SDS011;17927;52.350;13.402;2023-03-13T05:24:32;11.55;;;3.00;;
31298;SDS011;17927;52.350;13.402;2023-03-13T05:26:57;14.43;;;4.55;;
31298;SDS011;17927;52.350;13.402;2023-03-13T05:29:22;15.70;;;3.35;;
31298;SDS011;17927;52.350;13.402;2023-03-13T05:31:48;16.75;;;3.30;;
31298;SDS011;17927;52.350;13.402;2023-03-13T05:34:13;14.95;;;4.07;;
31298;SDS011;17927;52.350;13.402;2023-03-13T05:36:38;22.20;;;4.57;;
31298;SDS011;17927;52.350;13.402;2023-03-13T05:39:03;29.65;;;11.70;;
31298;SDS011;17927;52.350;13.402;2023-03-13T05:41:29;21.13;;;4.03;;
31298;SDS011;17927;52.350;13.402;2023-03-13T05:43:54;18.50;;;4.03;;
31298;SDS011;17927;52.350;13.402;2023-03-13T05:46:19;13.75;;;3.17;;
31298;SDS011;17927;52.350;13.402;2023-03-13T05:48:44;15.57;;;3.17;;
31298;SDS011;17927;52.350;13.402;2023-03-13T05:51:10;20.80;;;4.50;;
31298;SDS011;17927;52.350;13.402;2023-03-13T05:53:36;9.02;;;3.50;;
31298;SDS011;17927;52.350;13.402;2023-03-13T05:56:01;27.77;;;4.13;;
31298;SDS011;17927;52.350;13.402;2023-03-13T05:58:26;12.90;;;3.35;;
31298;SDS011;17927;52.350;13.402;2023-03-13T06:00:52;17.15;;;3.80;;
31298;SDS011;17927;52.350;13.402;2023-03-13T06:03:17;9.00;;;2.83;;
31298;SDS011;17927;52.350;13.402;2023-03-13T06:05:42;14.65;;;3.35;;
31298;SDS011;17927;52.350;13.402;2023-03-13T06:08:08;25.30;;;4.10;;
31298;SDS011;17927;52.350;13.402;2023-03-13T06:10:33;13.43;;;3.20;;
31298;SDS011;17927;52.350;13.402;2023-03-13T06:12:58;11.25;;;3.38;;
31298;SDS011;17927;52.350;13.402;2023-03-13T06:15:23;15.27;;;3.50;;
31298;SDS011;17927;52.350;13.402;2023-03-13T06:17:48;14.95;;;3.83;;
31298;SDS011;17927;52.350;13.402;2023-03-13T06:20:14;17.20;;;3.70;;
31298;SDS011;17927;52.350;13.402;2023-03-13T06:22:39;8.60;;;2.83;;
31298;SDS011;17927;52.350;13.402;2023-03-13T06:25:05;15.80;;;3.85;;
31298;SDS011;17927;52.350;13.402;2023-03-13T06:27:31;18.90;;;4.68;;
31298;SDS011;17927;52.350;13.402;2023-03-13T06:29:56;13.90;;;4.40;;
31298;SDS011;17927;52.350;13.402;2023-03-13T06:32:21;20.38;;;3.90;;
31298;SDS011;17927;52.350;13.402;2023-03-13T06:34:46;21.20;;;4.28;;
31298;SDS011;17927;52.350;13.402;2023-03-13T06:37:12;18.02;;;3.63;;
31298;SDS011;17927;52.350;13.402;2023-03-13T06:39:37;10.20;;;3.63;;
31298;SDS011;17927;52.350;13.402;2023-03-13T06:42:02;18.27;;;3.30;;
31298;SDS011;17927;52.350;13.402;2023-03-13T06:44:28;14.77;;;3.35;;
31298;SDS011;17927;52.350;13.402;2023-03-13T06:46:53;9.40;;;2.65;;
31298;SDS011;17927;52.350;13.402;2023-03-13T06:49:18;10.85;;;3.53;;
31298;SDS011;17927;52.350;13.402;2023-03-13T06:51:44;17.83;;;4.35;;
31298;SDS011;17927;52.350;13.402;2023-03-13T06:54:09;16.25;;;3.97;;
31298;SDS011;17927;52.350;13.402;2023-03-13T06:56:34;15.55;;;3.47;;
31298;SDS011;17927;52.350;13.402;2023-03-13T06:58:59;20.70;;;3.55;;
31298;SDS011;17927;52.350;13.402;2023-03-13T07:01:25;12.23;;;3.65;;
31298;SDS011;17927;52.350;13.402;2023-03-13T07:03:50;12.70;;;3.42;;
31298;SDS011;17927;52.350;13.402;2023-03-13T07:06:15;14.68;;;3.13;;
31298;SDS011;17927;52.350;13.402;2023-03-13T07:08:42;20.80;;;4.18;;
31298;SDS011;17927;52.350;13.402;2023-03-13T07:11:08;20.90;;;4.25;;
31298;SDS011;17927;52.350;13.402;2023-03-13T07:13:35;13.82;;;3.17;;
31298;SDS011;17927;52.350;13.402;2023-03-13T07:16:02;17.85;;;3.35;;
31298;SDS011;17927;52.350;13.402;2023-03-13T07:18:28;13.88;;;3.20;;
31298;SDS011;17927;52.350;13.402;2023-03-13T07:20:54;20.33;;;3.80;;
31298;SDS011;17927;52.350;13.402;2023-03-13T07:23:21;16.15;;;2.88;;
31298;SDS011;17927;52.350;13.402;2023-03-13T07:25:57;15.02;;;3.05;;
31298;SDS011;17927;52.350;13.402;2023-03-13T07:28:24;17.40;;;3.20;;
31298;SDS011;17927;52.350;13.402;2023-03-13T07:30:51;16.23;;;3.65;;
31298;SDS011;17927;52.350;13.402;2023-03-13T07:33:17;15.32;;;2.97;;
31298;SDS011;17927;52.350;13.402;2023-03-13T07:35:49;16.35;;;2.45;;
31298;SDS011;17927;52.350;13.402;2023-03-13T07:38:15;19.20;;;4.18;;
31298;SDS011;17927;52.350;13.402;2023-03-13T07:40:48;22.50;;;5.10;;
31298;SDS011;17927;52.350;13.402;2023-03-13T07:43:17;18.10;;;3.03;;
31298;SDS011;17927;52.350;13.402;2023-03-13T07:45:49;15.43;;;3.10;;
31298;SDS011;17927;52.350;13.402;2023-03-13T07:48:31;16.35;;;3.53;;
31298;SDS011;17927;52.350;13.402;2023-03-13T07:50:58;19.45;;;4.65;;
31298;SDS011;17927;52.350;13.402;2023-03-13T07:53:25;17.95;;;3.75;;
31298;SDS011;17927;52.350;13.402;2023-03-13T07:55:55;15.98;;;2.72;;
31298;SDS011;17927;52.350;13.402;2023-03-13T07:58:20;17.73;;;3.67;;
31298;SDS011;17927;52.350;13.402;2023-03-13T08:00:46;15.63;;;3.45;;
31298;SDS011;17927;52.350;13.402;2023-03-13T08:03:11;15.90;;;3.05;;
31298;SDS011;17927;52.350;13.402;2023-03-13T08:05:37;12.85;;;3.50;;
31298;SDS011;17927;52.350;13.402;2023-03-13T08:08:02;15.18;;;3.45;;
31298;SDS011;17927;52.350;13.402;2023-03-13T08:10:27;15.02;;;3.65;;
31298;SDS011;17927;52.350;13.402;2023-03-13T08:12:52;13.13;;;2.83;;
31298;SDS011;17927;52.350;13.402;2023-03-13T08:15:18;13.80;;;2.65;;
31298;SDS011;17927;52.350;13.402;2023-03-13T08:20:14;13.17;;;3.10;;
31298;SDS011;17927;52.350;13.402;2023-03-13T08:22:39;15.55;;;3.13;;
31298;SDS011;17927;52.350;13.402;2023-03-13T08:25:05;15.43;;;2.85;;
31298;SDS011;17927;52.350;13.402;2023-03-13T08:27:30;20.48;;;3.60;;
31298;SDS011;17927;52.350;13.402;2023-03-13T08:29:55;12.27;;;3.13;;
31298;SDS011;17927;52.350;13.402;2023-03-13T08:32:20;14.63;;;2.97;;
31298;SDS011;17927;52.350;13.402;2023-03-13T08:34:46;15.38;;;2.80;;
31298;SDS011;17927;52.350;13.402;2023-03-13T08:37:13;13.43;;;3.20;;
31298;SDS011;17927;52.350;13.402;2023-03-13T08:39:39;9.98;;;2.70;;
31298;SDS011;17927;52.350;13.402;2023-03-13T08:42:06;10.85;;;2.97;;
31298;SDS011;17927;52.350;13.402;2023-03-13T08:44:32;8.57;;;2.20;;
31298;SDS011;17927;52.350;13.402;2023-03-13T08:46:57;10.38;;;2.78;;
31298;SDS011;17927;52.350;13.402;2023-03-13T08:49:23;15.30;;;3.65;;
31298;SDS011;17927;52.350;13.402;2023-03-13T08:51:49;12.48;;;3.50;;
31298;SDS011;17927;52.350;13.402;2023-03-13T08:54:14;14.50;;;3.25;;
31298;SDS011;17927;52.350;13.402;2023-03-13T08:56:39;10.00;;;2.15;;
31298;SDS011;17927;52.350;13.402;2023-03-13T08:59:07;8.60;;;2.75;;
31298;SDS011;17927;52.350;13.402;2023-03-13T09:01:33;14.18;;;3.17;;
31298;SDS011;17927;52.350;13.402;2023-03-13T09:04:00;12.25;;;2.60;;
31298;SDS011;17927;52.350;13.402;2023-03-13T09:06:26;15.93;;;3.63;;
31298;SDS011;17927;52.350;13.402;2023-03-13T09:08:51;13.15;;;3.47;;
31298;SDS011;17927;52.350;13.402;2023-03-13T09:11:17;11.27;;;2.53;;
31298;SDS011;17927;52.350;13.402;2023-03-13T09:13:45;15.95;;;4.18;;
31298;SDS011;17927;52.350;13.402;2023-03-13T09:16:13;16.45;;;3.20;;
31298;SDS011;17927;52.350;13.402;2023-03-13T09:18:40;7.93;;;2.35;;
31298;SDS011;17927;52.350;13.402;2023-03-13T09:21:08;10.80;;;2.70;;
31298;SDS011;17927;52.350;13.402;2023-03-13T09:23:35;8.02;;;2.90;;
31298;SDS011;17927;52.350;13.402;2023-03-13T09:26:01;9.13;;;3.10;;
31298;SDS011;17927;52.350;13.402;2023-03-13T09:28:26;10.95;;;2.53;;
31298;SDS011;17927;52.350;13.402;2023-03-13T09:30:52;9.77;;;2.70;;
31298;SDS011;17927;52.350;13.402;2023-03-13T09:33:18;10.60;;;2.22;;
31298;SDS011;17927;52.350;13.402;2023-03-13T09:35:44;12.10;;;4.20;;
31298;SDS011;17927;52.350;13.402;2023-03-13T09:38:16;6.72;;;2.28;;
31298;SDS011;17927;52.350;13.402;2023-03-13T09:40:46;8.68;;;2.35;;
31298;SDS011;17927;52.350;13.402;2023-03-13T09:46:09;8.13;;;2.55;;
31298;SDS011;17927;52.350;13.402;2023-03-13T09:48:41;9.27;;;2.45;;
31298;SDS011;17927;52.350;13.402;2023-03-13T09:54:07;6.57;;;2.33;;
31298;SDS011;17927;52.350;13.402;2023-03-13T09:56:55;9.18;;;2.38;;
31298;SDS011;17927;52.350;13.402;2023-03-13T10:07:39;7.85;;;1.90;;
31298;SDS011;17927;52.350;13.402;2023-03-13T10:10:08;11.10;;;3.05;;
31298;SDS011;17927;52.350;13.402;2023-03-13T10:12:39;11.65;;;2.33;;
31298;SDS011;17927;52.350;13.402;2023-03-13T10:15:20;9.73;;;2.10;;
31298;SDS011;17927;52.350;13.402;2023-03-13T10:17:55;13.70;;;2.72;;
31298;SDS011;17927;52.350;13.402;2023-03-13T10:20:26;4.63;;;1.98;;
31298;SDS011;17927;52.350;13.402;2023-03-13T10:23:01;5.53;;;2.15;;
31298;SDS011;17927;52.350;13.402;2023-03-13T10:25:31;11.35;;;2.38;;
31298;SDS011;17927;52.350;13.402;2023-03-13T10:27:58;7.25;;;2.25;;
31298;SDS011;17927;52.350;13.402;2023-03-13T10:30:28;9.32;;;1.90;;
31298;SDS011;17927;52.350;13.402;2023-03-13T10:35:35;9.32;;;2.05;;
31298;SDS011;17927;52.350;13.402;2023-03-13T10:38:04;5.28;;;1.88;;
31298;SDS011;17927;52.350;13.402;2023-03-13T10:40:34;4.40;;;2.20;;
31298;SDS011;17927;52.350;13.402;2023-03-13T10:43:01;5.88;;;1.98;;
31298;SDS011;17927;52.350;13.402;2023-03-13T10:45:35;4.40;;;1.35;;
31298;SDS011;17927;52.350;13.402;2023-03-13T10:48:03;7.78;;;1.90;;
31298;SDS011;17927;52.350;13.402;2023-03-13T10:50:37;4.18;;;1.95;;
31298;SDS011;17927;52.350;13.402;2023-03-13T10:53:12;4.78;;;2.08;;
31298;SDS011;17927;52.350;13.402;2023-03-13T10:55:54;6.63;;;1.38;;
31298;SDS011;17927;52.350;13.402;2023-03-13T10:58:33;3.72;;;1.75;;
31298;SDS011;17927;52.350;13.402;2023-03-13T11:04:19;4.28;;;1.67;;
31298;SDS011;17927;52.350;13.402;2023-03-13T11:06:56;2.30;;;1.42;;
31298;SDS011;17927;52.350;13.402;2023-03-13T11:09:25;2.58;;;1.58;;
31298;SDS011;17927;52.350;13.402;2023-03-13T11:11:52;4.75;;;1.58;;
31298;SDS011;17927;52.350;13.402;2023-03-13T11:14:20;3.67;;;1.15;;
31298;SDS011;17927;52.350;13.402;2023-03-13T11:16:51;2.83;;;0.98;;
31298;SDS011;17927;52.350;13.402;2023-03-13T11:19:23;1.77;;;0.90;;
31298;SDS011;17927;52.350;13.402;2023-03-13T11:25:17;1.20;;;0.85;;
31298;SDS011;17927;52.350;13.402;2023-03-13T11:27:53;2.88;;;0.90;;
31298;SDS011;17927;52.350;13.402;2023-03-13T11:41:47;2.60;;;1.02;;
31298;SDS011;17927;52.350;13.402;2023-03-13T11:47:15;3.05;;;1.50;;
31298;SDS011;17927;52.350;13.402;2023-03-13T11:55:27;1.45;;;0.93;;
31298;SDS011;17927;52.350;13.402;2023-03-13T12:01:10;0.93;;;0.80;;
31298;SDS011;17927;52.350;13.402;2023-03-13T12:03:46;0.77;;;0.60;;
31298;SDS011;17927;52.350;13.402;2023-03-13T12:06:22;1.23;;;1.10;;
31298;SDS011;17927;52.350;13.402;2023-03-13T12:09:04;1.40;;;1.10;;
31298;SDS011;17927;52.350;13.402;2023-03-13T12:14:20;1.08;;;0.88;;
31298;SDS011;17927;52.350;13.402;2023-03-13T12:19:40;0.90;;;0.88;;
31298;SDS011;17927;52.350;13.402;2023-03-13T12:22:16;0.60;;;0.60;;
31298;SDS011;17927;52.350;13.402;2023-03-13T12:24:59;1.08;;;0.98;;
31298;SDS011;17927;52.350;13.402;2023-03-13T12:27:37;0.90;;;0.90;;
31298;SDS011;17927;52.350;13.402;2023-03-13T12:33:18;1.77;;;0.98;;
31298;SDS011;17927;52.350;13.402;2023-03-13T12:35:50;1.30;;;1.20;;
31298;SDS011;17927;52.350;13.402;2023-03-13T12:38:30;1.30;;;0.90;;
31298;SDS011;17927;52.350;13.402;2023-03-13T12:41:19;1.10;;;1.00;;
31298;SDS011;17927;52.350;13.402;2023-03-13T12:43:51;0.60;;;0.60;;
31298;SDS011;17927;52.350;13.402;2023-03-13T12:46:34;1.40;;;0.77;;
31298;SDS011;17927;52.350;13.402;2023-03-13T12:52:10;0.52;;;0.50;;
31298;SDS011;17927;52.350;13.402;2023-03-13T12:54:45;1.20;;;0.90;;
31298;SDS011;17927;52.350;13.402;2023-03-13T13:00:11;0.68;;;0.68;;
31298;SDS011;17927;52.350;13.402;2023-03-13T13:02:42;1.23;;;0.70;;
31298;SDS011;17927;52.350;13.402;2023-03-13T13:05:18;1.83;;;0.90;;
31298;SDS011;17927;52.350;13.402;2023-03-13T13:07:52;0.57;;;0.55;;
31298;SDS011;17927;52.350;13.402;2023-03-13T13:10:23;1.73;;;0.60;;
31298;SDS011;17927;52.350;13.402;2023-03-13T13:15:37;3.78;;;0.88;;
31298;SDS011;17927;52.350;13.402;2023-03-13T13:18:13;2.58;;;0.50;;
31298;SDS011;17927;52.350;13.402;2023-03-13T13:20:48;1.02;;;0.75;;
31298;SDS011;17927;52.350;13.402;2023-03-13T13:23:34;1.10;;;1.00;;
31298;SDS011;17927;52.350;13.402;2023-03-13T13:28:53;2.97;;;0.85;;
31298;SDS011;17927;52.350;13.402;2023-03-13T13:31:43;4.20;;;2.35;;
31298;SDS011;17927;52.350;13.402;2023-03-13T13:36:55;1.63;;;0.90;;
31298;SDS011;17927;52.350;13.402;2023-03-13T13:39:36;1.45;;;1.08;;
31298;SDS011;17927;52.350;13.402;2023-03-13T13:44:57;2.88;;;1.15;;
31298;SDS011;17927;52.350;13.402;2023-03-13T13:47:25;1.80;;;1.27;;
31298;SDS011;17927;52.350;13.402;2023-03-13T13:49:53;0.90;;;0.80;;
31298;SDS011;17927;52.350;13.402;2023-03-13T13:54:58;1.00;;;0.90;;
31298;SDS011;17927;52.350;13.402;2023-03-13T13:57:25;3.83;;;1.45;;
31298;SDS011;17927;52.350;13.402;2023-03-13T14:00:00;2.13;;;1.83;;
31298;SDS011;17927;52.350;13.402;2023-03-13T14:02:45;3.47;;;0.88;;
31298;SDS011;17927;52.350;13.402;2023-03-13T14:05:15;1.40;;;0.98;;
31298;SDS011;17927;52.350;13.402;2023-03-13T14:07:48;1.55;;;0.98;;
31298;SDS011;17927;52.350;13.402;2023-03-13T14:12:47;0.70;;;0.70;;
31298;SDS011;17927;52.350;13.402;2023-03-13T14:15:18;1.80;;;1.08;;
31298;SDS011;17927;52.350;13.402;2023-03-13T14:17:52;2.67;;;0.98;;
31298;SDS011;17927;52.350;13.402;2023-03-13T14:20:37;1.23;;;1.00;;
31298;SDS011;17927;52.350;13.402;2023-03-13T14:23:05;0.63;;;0.63;;
31298;SDS011;17927;52.350;13.402;2023-03-13T14:25:41;1.17;;;1.07;;
31298;SDS011;17927;52.350;13.402;2023-03-13T14:28:18;0.77;;;0.73;;
31298;SDS011;17927;52.350;13.402;2023-03-13T14:30:44;1.20;;;1.10;;
31298;SDS011;17927;52.350;13.402;2023-03-13T14:33:10;1.90;;;1.13;;
31298;SDS011;17927;52.350;13.402;2023-03-13T14:35:36;1.42;;;0.90;;
31298;SDS011;17927;52.350;13.402;2023-03-13T14:38:03;0.47;;;0.47;;
31298;SDS011;17927;52.350;13.402;2023-03-13T14:40:29;1.20;;;0.85;;
31298;SDS011;17927;52.350;13.402;2023-03-13T14:42:58;1.48;;;0.90;;
31298;SDS011;17927;52.350;13.402;2023-03-13T14:45:31;4.28;;;0.80;;
31298;SDS011;17927;52.350;13.402;2023-03-13T14:48:00;1.60;;;1.08;;
31298;SDS011;17927;52.350;13.402;2023-03-13T14:50:27;1.55;;;0.77;;
31298;SDS011;17927;52.350;13.402;2023-03-13T14:52:54;2.22;;;1.50;;
31298;SDS011;17927;52.350;13.402;2023-03-13T14:55:25;2.28;;;0.95;;
31298;SDS011;17927;52.350;13.402;2023-03-13T14:57:56;3.38;;;0.90;;
31298;SDS011;17927;52.350;13.402;2023-03-13T15:00:42;0.88;;;0.80;;
31298;SDS011;17927;52.350;13.402;2023-03-13T15:05:41;2.03;;;1.58;;
31298;SDS011;17927;52.350;13.402;2023-03-13T15:08:15;0.75;;;0.75;;
31298;SDS011;17927;52.350;13.402;2023-03-13T15:10:42;0.65;;;0.65;;
31298;SDS011;17927;52.350;13.402;2023-03-13T15:13:14;3.08;;;0.90;;
31298;SDS011;17927;52.350;13.402;2023-03-13T15:15:41;0.63;;;0.63;;
31298;SDS011;17927;52.350;13.402;2023-03-13T15:18:14;2.95;;;0.80;;
31298;SDS011;17927;52.350;13.402;2023-03-13T15:20:42;1.23;;;0.88;;
31298;SDS011;17927;52.350;13.402;2023-03-13T15:23:11;1.00;;;1.00;;
31298;SDS011;17927;52.350;13.402;2023-03-13T15:25:38;0.80;;;0.80;;
31298;SDS011;17927;52.350;13.402;2023-03-13T15:28:04;1.60;;;0.80;;
31298;SDS011;17927;52.350;13.402;2023-03-13T15:30:37;2.88;;;1.10;;
31298;SDS011;17927;52.350;13.402;2023-03-13T15:33:03;0.63;;;0.63;;
31298;SDS011;17927;52.350;13.402;2023-03-13T15:35:29;3.30;;;1.58;;
31298;SDS011;17927;52.350;13.402;2023-03-13T15:37:56;3.00;;;1.00;;
31298;SDS011;17927;52.350;13.402;2023-03-13T15:40:23;2.35;;;1.13;;
31298;SDS011;17927;52.350;13.402;2023-03-13T15:42:50;1.25;;;0.68;;
31298;SDS011;17927;52.350;13.402;2023-03-13T15:45:15;1.10;;;0.60;;
31298;SDS011;17927;52.350;13.402;2023-03-13T15:47:41;1.08;;;1.00;;
31298;SDS011;17927;52.350;13.402;2023-03-13T15:50:10;1.17;;;0.88;;
31298;SDS011;17927;52.350;13.402;2023-03-13T15:52:37;0.82;;;0.80;;
31298;SDS011;17927;52.350;13.402;2023-03-13T15:55:03;2.55;;;0.90;;
31298;SDS011;17927;52.350;13.402;2023-03-13T15:57:31;1.20;;;1.10;;